Time,TemperatureF,DewpointF,PressureIn,WindDirection,WindDirectionDegrees,WindSpeedMPH,WindSpeedGustMPH,Humidity,HourlyPrecipIn,Conditions,Clouds,dailyrainin,SoftwareType,DateUTC
2013-06-07 00:00:00,54.1,48.4,29.88,NE,45,2.0,6.0,81,0.00,,BKN100,0.00,VWS V14.01,2013-06-07 05:00:00,
2013-06-07 00:14:00,54.1,48.0,29.88,NW,326,0.0,5.0,80,0.00,,,0.00,weatherlink.com 1.10,2013-06-07 05:14:00,
2013-06-07 00:29:00,54.1,49.0,29.88,NE,54,2.0,4.0,82,0.00,,,0.00,weatherlink.com 1.10,2013-06-07 05:29:00,
2013-06-07 00:30:00,54.1,48.7,29.88,NE,45,1.0,6.0,82,0.00,,BKN100,0.00,VWS V14.01,2013-06-07 05:30:00,
2013-06-07 00:44:00,54.3,49.0,29.88,NE,56,1.0,4.0,82,0.00,,,0.00,weatherlink.com 1.10,2013-06-07 05:44:00,
2013-06-07 00:59:00,54.2,48.0,29.88,ENE,76,2.0,4.0,80,0.00,,,0.00,weatherlink.com 1.10,2013-06-07 05:59:00,
2013-06-07 01:00:00,54.2,48.2,29.88,ENE,68,2.0,7.0,80,0.00,,BKN100,0.00,VWS V14.01,2013-06-07 06:00:00,
2013-06-07 01:14:00,54.2,48.0,29.88,NE,55,0.0,4.0,80,0.00,,,0.00,weatherlink.com 1.10,2013-06-07 06:14:00,
2013-06-07 01:29:00,54.3,48.0,29.88,NNE,17,0.0,2.0,80,0.00,,,0.00,weatherlink.com 1.10,2013-06-07 06:29:00,
2013-06-07 01:30:00,54.3,48.3,29.88,NE,45,1.0,5.0,80,0.00,,BKN100,0.00,VWS V14.01,2013-06-07 06:30:00,
2013-06-07 01:44:00,54.5,49.0,29.88,NNE,15,2.0,2.0,81,0.00,,,0.00,weatherlink.com 1.10,2013-06-07 06:44:00,
2013-06-07 01:59:00,54.5,49.0,29.88,NNW,344,0.0,2.0,82,0.00,,,0.00,weatherlink.com 1.10,2013-06-07 06:59:00,
2013-06-07 02:00:00,54.5,49.1,29.88,NNE,22,0.0,2.0,82,0.00,,BKN100,0.00,VWS V14.01,2013-06-07 07:00:00,
2013-06-07 02:14:00,54.5,49.0,29.87,NNW,333,3.0,4.0,83,0.00,,,0.00,weatherlink.com 1.10,2013-06-07 07:14:00,
2013-06-07 02:29:00,54.7,50.0,29.87,NNW,340,2.0,3.0,83,0.00,,,0.00,weatherlink.com 1.10,2013-06-07 07:29:00,
2013-06-07 02:30:00,54.7,49.7,29.87,NNW,338,1.0,4.0,83,0.00,,BKN100,0.00,VWS V14.01,2013-06-07 07:30:00,
2013-06-07 02:44:00,54.7,49.0,29.87,NNE,19,0.0,5.0,81,0.00,,,0.00,weatherlink.com 1.10,2013-06-07 07:44:00,
2013-06-07 02:59:00,54.8,49.0,29.87,North,350,1.0,5.0,82,0.00,,,0.00,weatherlink.com 1.10,2013-06-07 07:59:00,
2013-06-07 03:00:00,54.7,49.3,29.87,NE,45,2.0,6.0,82,0.00,,BKN100,0.00,VWS V14.01,2013-06-07 08:00:00,
2013-06-07 03:14:00,54.7,50.0,29.87,NE,34,3.0,5.0,83,0.00,,,0.00,weatherlink.com 1.10,2013-06-07 08:14:00,
2013-06-07 03:29:00,54.7,50.0,29.87,ENE,66,2.0,6.0,83,0.00,,,0.00,weatherlink.com 1.10,2013-06-07 08:29:00,
2013-06-07 03:30:00,54.7,49.7,29.87,NE,45,2.0,7.0,83,0.00,,BKN100,0.00,VWS V14.01,2013-06-07 08:30:00,
2013-06-07 03:44:00,54.7,50.0,29.87,ENE,58,1.0,6.0,84,0.00,,,0.00,weatherlink.com 1.10,2013-06-07 08:44:00,
2013-06-07 03:59:00,54.7,50.0,29.86,NNE,15,4.0,6.0,83,0.00,,,0.00,weatherlink.com 1.10,2013-06-07 08:59:00,
2013-06-07 04:00:00,54.7,50.0,29.86,NE,45,3.0,8.0,84,0.00,,BKN100,0.00,VWS V14.01,2013-06-07 09:00:00,
2013-06-07 04:14:00,54.6,49.0,29.87,ENE,71,5.0,5.0,82,0.00,,,0.00,weatherlink.com 1.10,2013-06-07 09:14:00,
2013-06-07 04:29:00,54.6,49.0,29.87,NE,49,2.0,5.0,82,0.00,,,0.00,weatherlink.com 1.10,2013-06-07 09:29:00,
2013-06-07 04:30:00,54.6,49.2,29.87,NE,45,2.0,7.0,82,0.00,,BKN100,0.00,VWS V14.01,2013-06-07 09:30:00,
2013-06-07 04:44:00,54.5,49.0,29.87,ENE,70,1.0,4.0,83,0.00,,,0.00,weatherlink.com 1.10,2013-06-07 09:44:00,
2013-06-07 04:59:00,54.5,48.0,29.88,NNE,17,2.0,6.0,80,0.00,,,0.00,weatherlink.com 1.10,2013-06-07 09:59:00,
2013-06-07 05:00:00,54.5,48.5,29.88,ENE,68,2.0,7.0,80,0.00,,BKN100,0.00,VWS V14.01,2013-06-07 10:00:00,
2013-06-07 05:14:00,54.4,47.0,29.88,ENE,77,4.0,8.0,77,0.00,,,0.00,weatherlink.com 1.10,2013-06-07 10:14:00,
2013-06-07 05:29:00,54.3,48.0,29.88,NNE,23,3.0,6.0,78,0.00,,,0.00,weatherlink.com 1.10,2013-06-07 10:29:00,
2013-06-07 05:30:00,54.3,47.6,29.88,NE,45,3.0,10.0,78,0.00,,BKN100,0.00,VWS V14.01,2013-06-07 10:30:00,
2013-06-07 05:44:00,54.1,48.0,29.89,NNW,340,0.0,2.0,80,0.00,,,0.00,weatherlink.com 1.10,2013-06-07 10:44:00,
2013-06-07 05:59:00,54.1,48.0,29.89,ENE,66,0.0,3.0,79,0.00,,,0.00,weatherlink.com 1.10,2013-06-07 10:59:00,
2013-06-07 06:00:00,54.1,48.1,29.89,NNE,22,1.0,4.0,80,0.00,,BKN100,0.00,VWS V14.01,2013-06-07 11:00:00,
2013-06-07 06:14:00,54.0,48.0,29.89,NE,43,1.0,3.0,80,0.00,,,0.00,weatherlink.com 1.10,2013-06-07 11:14:00,
2013-06-07 06:29:00,53.9,48.0,29.89,NE,44,1.0,3.0,80,0.00,,,0.00,weatherlink.com 1.10,2013-06-07 11:29:00,
2013-06-07 06:30:00,53.9,47.9,29.89,NE,45,1.0,4.0,80,0.00,,BKN100,0.00,VWS V14.01,2013-06-07 11:30:00,
2013-06-07 06:44:00,53.9,48.0,29.89,NNE,29,1.0,1.0,81,0.00,,,0.00,weatherlink.com 1.10,2013-06-07 11:44:00,
2013-06-07 06:59:00,54.1,49.0,29.89,NE,42,1.0,3.0,83,0.00,,,0.00,weatherlink.com 1.10,2013-06-07 11:59:00,
2013-06-07 07:00:00,54.1,49.4,29.89,NNE,22,1.0,4.0,84,0.00,,BKN100,0.00,VWS V14.01,2013-06-07 12:00:00,
2013-06-07 07:14:00,55.0,50.0,29.89,NNE,22,3.0,4.0,82,0.00,,,0.00,weatherlink.com 1.10,2013-06-07 12:14:00,
2013-06-07 07:29:00,55.6,50.0,29.89,NNW,347,0.0,5.0,80,0.00,,,0.00,weatherlink.com 1.10,2013-06-07 12:29:00,
2013-06-07 07:30:00,55.6,49.9,29.89,NE,45,2.0,6.0,81,0.00,,BKN100,0.00,VWS V14.01,2013-06-07 12:30:00,
2013-06-07 07:44:00,55.8,50.0,29.90,ENE,76,3.0,8.0,80,0.00,,,0.00,weatherlink.com 1.10,2013-06-07 12:44:00,
2013-06-07 07:59:00,56.0,50.0,29.90,NNW,344,3.0,7.0,80,0.00,,,0.00,weatherlink.com 1.10,2013-06-07 12:59:00,
2013-06-07 08:00:00,56.1,50.0,29.90,NE,45,3.0,9.0,80,0.00,,BKN100,0.00,VWS V14.01,2013-06-07 13:00:00,
2013-06-07 08:14:00,56.5,50.0,29.90,ENE,66,1.0,7.0,79,0.00,,,0.00,weatherlink.com 1.10,2013-06-07 13:14:00,
2013-06-07 08:29:00,57.0,51.0,29.91,NE,54,1.0,3.0,80,0.00,,,0.00,weatherlink.com 1.10,2013-06-07 13:29:00,
2013-06-07 08:30:00,57.0,50.9,29.91,NE,45,2.0,8.0,80,0.00,,BKN100,0.00,VWS V14.01,2013-06-07 13:30:00,
2013-06-07 08:44:00,56.8,51.0,29.91,North,360,0.0,5.0,80,0.00,,,0.00,weatherlink.com 1.10,2013-06-07 13:44:00,
2013-06-07 08:59:00,56.4,51.0,29.91,NNE,31,1.0,7.0,81,0.00,,,0.00,weatherlink.com 1.10,2013-06-07 13:59:00,
2013-06-07 09:00:00,56.4,50.7,29.91,NE,45,2.0,8.0,81,0.00,,BKN100,0.00,VWS V14.01,2013-06-07 14:00:00,
2013-06-07 09:15:00,56.6,52.0,29.92,NNE,32,1.0,8.0,83,0.00,,,0.00,weatherlink.com 1.10,2013-06-07 14:15:00,
2013-06-07 09:30:00,57.0,51.0,29.91,NE,34,4.0,9.0,81,0.00,,,0.00,weatherlink.com 1.10,2013-06-07 14:30:00,
2013-06-07 09:45:00,57.7,52.0,29.91,NNE,29,4.0,10.0,81,0.00,,,0.00,weatherlink.com 1.10,2013-06-07 14:45:00,
2013-06-07 10:00:00,57.7,52.0,29.91,NE,39,4.0,10.0,82,0.00,,,0.00,weatherlink.com 1.10,2013-06-07 15:00:00,
2013-06-07 10:15:00,58.2,53.0,29.91,NE,49,5.0,10.0,82,0.00,,,0.00,weatherlink.com 1.10,2013-06-07 15:15:00,
2013-06-07 10:30:00,59.1,53.0,29.91,ENE,66,11.0,11.0,79,0.00,,,0.00,weatherlink.com 1.10,2013-06-07 15:30:00,
2013-06-07 10:45:00,61.1,53.0,29.91,ENE,67,3.0,11.0,74,0.00,,,0.00,weatherlink.com 1.10,2013-06-07 15:45:00,
2013-06-07 11:00:00,61.4,53.0,29.91,NE,40,2.0,14.0,74,0.00,,,0.00,weatherlink.com 1.10,2013-06-07 16:00:00,
2013-06-07 11:15:00,62.2,52.0,29.90,ENE,69,5.0,9.0,70,0.00,,,0.00,weatherlink.com 1.10,2013-06-07 16:15:00,
2013-06-07 11:30:00,62.5,52.0,29.90,NE,51,6.0,14.0,69,0.00,,,0.00,weatherlink.com 1.10,2013-06-07 16:30:00,
2013-06-07 11:45:00,63.4,53.0,29.90,NNW,330,9.0,10.0,69,0.00,,,0.00,weatherlink.com 1.10,2013-06-07 16:45:00,
2013-06-07 12:00:00,63.7,53.0,29.90,ENE,60,3.0,12.0,68,0.00,,,0.00,weatherlink.com 1.10,2013-06-07 17:00:00,
2013-06-07 12:15:00,64.3,53.0,29.90,NNE,15,10.0,15.0,67,0.00,,,0.00,weatherlink.com 1.10,2013-06-07 17:15:00,
2013-06-07 12:30:00,64.7,54.0,29.89,East,81,14.0,14.0,69,0.00,,,0.00,weatherlink.com 1.10,2013-06-07 17:30:00,
2013-06-07 12:45:00,65.3,54.0,29.89,East,97,6.0,10.0,66,0.00,,,0.00,weatherlink.com 1.10,2013-06-07 17:45:00,
2013-06-07 13:00:00,66.1,53.0,29.89,East,81,7.0,11.0,62,0.00,,,0.00,weatherlink.com 1.10,2013-06-07 18:00:00,
2013-06-07 13:15:00,67.2,54.0,29.89,ENE,70,8.0,11.0,62,0.00,,,0.00,weatherlink.com 1.10,2013-06-07 18:15:00,
2013-06-07 13:30:00,67.7,51.0,29.89,ENE,68,6.0,14.0,55,0.00,,BKN100,0.00,VWS V14.01,2013-06-07 18:30:00,
2013-06-07 13:45:00,67.5,51.0,29.88,ENE,76,5.0,13.0,55,0.00,,,0.00,weatherlink.com 1.10,2013-06-07 18:45:00,
2013-06-07 14:00:00,68.4,50.6,29.88,ENE,68,6.0,15.0,53,0.00,,BKN100,0.00,VWS V14.01,2013-06-07 19:00:00,
2013-06-07 14:15:00,68.1,51.0,29.88,NE,39,4.0,13.0,55,0.00,,,0.00,weatherlink.com 1.10,2013-06-07 19:15:00,
2013-06-07 14:30:00,68.6,51.0,29.88,NNE,32,6.0,11.0,53,0.00,,,0.00,weatherlink.com 1.10,2013-06-07 19:30:00,
2013-06-07 14:45:00,68.7,49.0,29.88,ENE,58,5.0,13.0,50,0.00,,,0.00,weatherlink.com 1.10,2013-06-07 19:45:00,
2013-06-07 15:00:00,68.8,49.0,29.87,ENE,69,5.0,12.0,49,0.00,,,0.00,weatherlink.com 1.10,2013-06-07 20:00:00,
2013-06-07 15:15:00,69.0,47.0,29.87,ESE,107,10.0,17.0,45,0.00,,,0.00,weatherlink.com 1.10,2013-06-07 20:15:00,
2013-06-07 15:30:00,68.9,47.0,29.87,ENE,73,4.0,14.0,45,0.00,,,0.00,weatherlink.com 1.10,2013-06-07 20:30:00,
2013-06-07 15:45:00,69.0,46.0,29.87,NE,56,3.0,14.0,44,0.00,,,0.00,weatherlink.com 1.10,2013-06-07 20:45:00,
2013-06-07 16:00:00,69.6,47.0,29.87,East,92,10.0,13.0,44,0.00,,,0.00,weatherlink.com 1.10,2013-06-07 21:00:00,
2013-06-07 16:15:00,68.9,45.0,29.87,ENE,69,12.0,12.0,43,0.00,,,0.00,weatherlink.com 1.10,2013-06-07 21:15:00,
2013-06-07 16:30:00,69.1,44.0,29.87,ESE,109,9.0,11.0,40,0.00,,,0.00,weatherlink.com 1.10,2013-06-07 21:30:00,
2013-06-07 16:45:00,68.8,44.0,29.87,ENE,65,7.0,10.0,41,0.00,,,0.00,weatherlink.com 1.10,2013-06-07 21:45:00,
2013-06-07 17:00:00,69.2,45.2,29.87,ENE,68,6.0,12.0,42,0.00,,BKN100,0.00,VWS V14.01,2013-06-07 22:00:00,
2013-06-07 17:15:00,69.3,44.0,29.87,East,92,3.0,11.0,41,0.00,,,0.00,weatherlink.com 1.10,2013-06-07 22:15:00,
2013-06-07 17:30:00,69.3,44.0,29.86,East,93,6.0,11.0,40,0.00,,,0.00,weatherlink.com 1.10,2013-06-07 22:30:00,
2013-06-07 18:00:00,69.1,44.0,29.86,NE,49,7.0,10.0,40,0.00,,,0.00,weatherlink.com 1.10,2013-06-07 23:00:00,
2013-06-07 18:16:00,68.8,43.0,29.86,ENE,67,2.0,9.0,39,0.00,,,0.00,weatherlink.com 1.10,2013-06-07 23:16:00,
2013-06-07 18:30:00,69.0,43.7,29.86,ENE,68,4.0,10.0,40,0.00,,BKN100,0.00,VWS V14.01,2013-06-07 23:30:00,
2013-06-07 18:46:00,68.6,43.0,29.86,East,88,2.0,8.0,39,0.00,,,0.00,weatherlink.com 1.10,2013-06-07 23:46:00,
2013-06-07 19:00:00,68.4,44.4,29.86,East,90,4.0,10.0,42,0.00,,BKN100,0.00,VWS V14.01,2013-06-08 00:00:00,
2013-06-07 19:01:00,68.4,45.0,29.86,East,92,2.0,9.0,43,0.00,,,0.00,weatherlink.com 1.10,2013-06-08 00:01:00,
2013-06-07 19:30:00,67.7,44.4,29.87,East,90,4.0,11.0,43,0.00,,BKN100,0.00,VWS V14.01,2013-06-08 00:30:00,
2013-06-07 19:46:00,66.9,44.0,29.87,ENE,78,2.0,8.0,44,0.00,,,0.00,weatherlink.com 1.10,2013-06-08 00:46:00,
2013-06-07 20:00:00,66.0,45.2,29.87,East,90,3.0,8.0,47,0.00,,BKN100,0.00,VWS V14.01,2013-06-08 01:00:00,
2013-06-07 20:16:00,64.5,45.0,29.87,ESE,107,2.0,2.0,49,0.00,,,0.00,weatherlink.com 1.10,2013-06-08 01:16:00,
2013-06-07 20:30:00,62.9,45.5,29.88,East,90,1.0,5.0,53,0.00,,BKN100,0.00,VWS V14.01,2013-06-08 01:30:00,
2013-06-07 20:31:00,62.8,45.0,29.88,East,96,0.0,2.0,53,0.00,,,0.00,weatherlink.com 1.10,2013-06-08 01:31:00,
2013-06-07 20:46:00,61.5,45.0,29.88,East,85,1.0,3.0,55,0.00,,,0.00,weatherlink.com 1.10,2013-06-08 01:46:00,
2013-06-07 21:00:00,60.7,44.9,29.88,East,90,1.0,3.0,56,0.00,,BKN100,0.00,VWS V14.01,2013-06-08 02:00:00,
2013-06-07 21:01:00,60.7,45.0,29.88,East,86,1.0,2.0,56,0.00,,,0.00,weatherlink.com 1.10,2013-06-08 02:01:00,
2013-06-07 21:16:00,59.4,45.0,29.88,East,81,1.0,2.0,60,0.00,,,0.00,weatherlink.com 1.10,2013-06-08 02:16:00,
2013-06-07 21:30:00,58.9,45.5,29.89,East,90,1.0,2.0,61,0.00,,BKN100,0.00,VWS V14.01,2013-06-08 02:30:00,
2013-06-07 21:31:00,58.9,45.0,29.89,East,96,1.0,2.0,61,0.00,,,0.00,weatherlink.com 1.10,2013-06-08 02:31:00,
2013-06-07 21:46:00,57.9,46.0,29.89,East,100,0.0,1.0,64,0.00,,,0.00,weatherlink.com 1.10,2013-06-08 02:46:00,
2013-06-07 22:00:00,58.3,45.8,29.89,ESE,112,1.0,5.0,63,0.00,,BKN100,0.00,VWS V14.01,2013-06-08 03:00:00,
2013-06-07 22:01:00,58.4,46.0,29.89,SE,126,3.0,6.0,63,0.00,,,0.00,weatherlink.com 1.10,2013-06-08 03:01:00,
2013-06-07 22:16:00,58.7,44.0,29.89,ESE,117,2.0,7.0,59,0.00,,,0.00,weatherlink.com 1.10,2013-06-08 03:16:00,
2013-06-07 22:30:00,58.6,44.8,29.88,ESE,112,3.0,8.0,60,0.00,,BKN100,0.00,VWS V14.01,2013-06-08 03:30:00,
2013-06-07 22:31:00,58.4,44.0,29.89,SE,130,2.0,7.0,60,0.00,,,0.00,weatherlink.com 1.10,2013-06-08 03:31:00,
2013-06-07 22:46:00,58.0,44.0,29.89,SE,137,0.0,3.0,59,0.00,,,0.00,weatherlink.com 1.10,2013-06-08 03:46:00,
2013-06-07 23:00:00,56.6,43.3,29.89,ESE,112,1.0,5.0,61,0.00,,BKN100,0.00,VWS V14.01,2013-06-08 04:00:00,
2013-06-07 23:01:00,56.6,43.0,29.89,SE,130,2.0,3.0,60,0.00,,,0.00,weatherlink.com 1.10,2013-06-08 04:01:00,
2013-06-07 23:16:00,56.4,43.0,29.88,ESE,115,4.0,4.0,61,0.00,,,0.00,weatherlink.com 1.10,2013-06-08 04:16:00,
2013-06-07 23:30:00,55.8,43.0,29.88,ESE,112,1.0,4.0,62,0.00,,BKN100,0.00,VWS V14.01,2013-06-08 04:30:00,
2013-06-07 23:31:00,55.7,43.0,29.88,East,84,0.0,2.0,63,0.00,,,0.00,weatherlink.com 1.10,2013-06-08 04:31:00,
2013-06-07 23:46:00,54.0,43.0,29.88,East,84,0.0,1.0,67,0.00,,,0.00,weatherlink.com 1.10,2013-06-08 04:46:00,